sensor_id;sensor_type;location;lat;lon;timestamp;pressure;altitude;pressure_sealevel;temperature;humidity
14120;BME280;7138;49.246;9.100;2023-07-31T00:01:50;98697.16;;;19.71;83.25
14120;BME280;7138;49.246;9.100;2023-07-31T00:04:16;98699.84;;;19.69;83.06
14120;BME280;7138;49.246;9.100;2023-07-31T00:06:42;98691.13;;;19.69;83.49
14120;BME280;7138;49.246;9.100;2023-07-31T00:09:09;98689.41;;;19.68;83.07
14120;BME280;7138;49.246;9.100;2023-07-31T00:11:35;98691.16;;;19.67;83.31
14120;BME280;7138;49.246;9.100;2023-07-31T00:14:00;98685.97;;;19.66;82.98
14120;BME280;7138;49.246;9.100;2023-07-31T00:16:26;98687.81;;;19.63;82.96
14120;BME280;7138;49.246;9.100;2023-07-31T00:18:53;98693.97;;;19.62;82.88
14120;BME280;7138;49.246;9.100;2023-07-31T00:21:18;98693.97;;;19.62;83.04
14120;BME280;7138;49.246;9.100;2023-07-31T00:23:44;98700.94;;;19.63;82.96
14120;BME280;7138;49.246;9.100;2023-07-31T00:26:11;98696.53;;;19.64;82.76
14120;BME280;7138;49.246;9.100;2023-07-31T00:28:37;98699.16;;;19.64;83.04
14120;BME280;7138;49.246;9.100;2023-07-31T00:31:03;98700.94;;;19.63;82.73
14120;BME280;7138;49.246;9.100;2023-07-31T00:33:31;98699.22;;;19.62;82.50
14120;BME280;7138;49.246;9.100;2023-07-31T00:35:57;98698.34;;;19.62;82.71
14120;BME280;7138;49.246;9.100;2023-07-31T00:38:22;98688.03;;;19.57;82.45
14120;BME280;7138;49.246;9.100;2023-07-31T00:40:48;98688.03;;;19.57;82.92
14120;BME280;7138;49.246;9.100;2023-07-31T00:43:15;98688.94;;;19.56;82.72
14120;BME280;7138;49.246;9.100;2023-07-31T00:45:41;98684.56;;;19.57;82.77
14120;BME280;7138;49.246;9.100;2023-07-31T00:48:07;98682.81;;;19.57;82.48
14120;BME280;7138;49.246;9.100;2023-07-31T00:50:35;98686.31;;;19.56;82.60
14120;BME280;7138;49.246;9.100;2023-07-31T00:53:01;98680.28;;;19.54;82.67
14120;BME280;7138;49.246;9.100;2023-07-31T00:55:27;98677.59;;;19.56;82.64
14120;BME280;7138;49.246;9.100;2023-07-31T00:57:53;98680.22;;;19.56;82.86
14120;BME280;7138;49.246;9.100;2023-07-31T01:00:22;98674.13;;;19.55;82.53
14120;BME280;7138;49.246;9.100;2023-07-31T01:02:49;98676.81;;;19.54;82.91
14120;BME280;7138;49.246;9.100;2023-07-31T01:05:16;98680.28;;;19.54;82.69
14120;BME280;7138;49.246;9.100;2023-07-31T01:07:52;98675.03;;;19.54;83.01
14120;BME280;7138;49.246;9.100;2023-07-31T01:10:26;98669.09;;;19.49;82.61
14120;BME280;7138;49.246;9.100;2023-07-31T01:12:57;98665.69;;;19.47;82.59
14120;BME280;7138;49.246;9.100;2023-07-31T01:15:24;98661.34;;;19.46;82.52
14120;BME280;7138;49.246;9.100;2023-07-31T01:17:50;98656.16;;;19.45;82.50
14120;BME280;7138;49.246;9.100;2023-07-31T01:20:21;98657.84;;;19.46;82.32
14120;BME280;7138;49.246;9.100;2023-07-31T01:23:18;98646.41;;;19.48;82.30
14120;BME280;7138;49.246;9.100;2023-07-31T01:26:03;98639.59;;;19.43;83.23
14120;BME280;7138;49.246;9.100;2023-07-31T01:28:44;98643.72;;;19.50;82.85
14120;BME280;7138;49.246;9.100;2023-07-31T01:31:16;98642.13;;;19.46;82.68
14120;BME280;7138;49.246;9.100;2023-07-31T01:33:45;98641.41;;;19.42;82.81
14120;BME280;7138;49.246;9.100;2023-07-31T01:36:12;98643.28;;;19.37;82.83
14120;BME280;7138;49.246;9.100;2023-07-31T01:38:37;98642.41;;;19.37;82.98
14120;BME280;7138;49.246;9.100;2023-07-31T01:41:05;98638.94;;;19.36;82.88
14120;BME280;7138;49.246;9.100;2023-07-31T01:43:30;98640.72;;;19.36;83.01
14120;BME280;7138;49.246;9.100;2023-07-31T01:45:56;98624.59;;;19.23;82.64
14120;BME280;7138;49.246;9.100;2023-07-31T01:48:22;98633.22;;;19.27;82.56
14120;BME280;7138;49.246;9.100;2023-07-31T01:50:48;98632.47;;;19.23;82.56
14120;BME280;7138;49.246;9.100;2023-07-31T01:53:14;98628.91;;;19.24;83.04
14120;BME280;7138;49.246;9.100;2023-07-31T01:55:40;98630.59;;;19.27;82.93
14120;BME280;7138;49.246;9.100;2023-07-31T01:58:07;98628.78;;;19.27;82.97
14120;BME280;7138;49.246;9.100;2023-07-31T02:00:33;98627.00;;;19.29;83.17
14120;BME280;7138;49.246;9.100;2023-07-31T02:02:59;98618.41;;;19.24;82.98
14120;BME280;7138;49.246;9.100;2023-07-31T02:05:25;98613.75;;;19.32;83.20
14120;BME280;7138;49.246;9.100;2023-07-31T02:07:51;98619.75;;;19.36;83.26
14120;BME280;7138;49.246;9.100;2023-07-31T02:10:17;98612.78;;;19.35;83.05
14120;BME280;7138;49.246;9.100;2023-07-31T02:12:43;98618.81;;;19.37;82.80
14120;BME280;7138;49.246;9.100;2023-07-31T02:15:10;98617.13;;;19.36;82.92
14120;BME280;7138;49.246;9.100;2023-07-31T02:17:36;98610.94;;;19.37;82.68
14120;BME280;7138;49.246;9.100;2023-07-31T02:20:02;98606.56;;;19.37;82.91
14120;BME280;7138;49.246;9.100;2023-07-31T02:22:29;98603.03;;;19.38;82.94
14120;BME280;7138;49.246;9.100;2023-07-31T02:24:54;98606.50;;;19.40;82.91
14120;BME280;7138;49.246;9.100;2023-07-31T02:27:20;98607.31;;;19.42;82.69
14120;BME280;7138;49.246;9.100;2023-07-31T02:29:49;98599.47;;;19.41;82.40
14120;BME280;7138;49.246;9.100;2023-07-31T02:32:16;98597.66;;;19.43;82.67
14120;BME280;7138;49.246;9.100;2023-07-31T02:34:42;98601.97;;;19.44;82.85
14120;BME280;7138;49.246;9.100;2023-07-31T02:37:08;98600.22;;;19.44;82.79
14120;BME280;7138;49.246;9.100;2023-07-31T02:39:34;98595.88;;;19.43;83.04
14120;BME280;7138;49.246;9.100;2023-07-31T02:42:00;98602.06;;;19.42;83.02
14120;BME280;7138;49.246;9.100;2023-07-31T02:44:26;98568.66;;;19.23;82.95
14120;BME280;7138;49.246;9.100;2023-07-31T02:46:52;98602.09;;;19.41;83.01
14120;BME280;7138;49.246;9.100;2023-07-31T02:49:19;98598.50;;;19.43;83.07
14120;BME280;7138;49.246;9.100;2023-07-31T02:51:44;98599.38;;;19.44;83.36
14120;BME280;7138;49.246;9.100;2023-07-31T02:54:10;98601.09;;;19.45;83.33
14120;BME280;7138;49.246;9.100;2023-07-31T02:56:36;98602.06;;;19.42;83.17
14120;BME280;7138;49.246;9.100;2023-07-31T02:59:02;98596.75;;;19.44;83.34
14120;BME280;7138;49.246;9.100;2023-07-31T03:01:28;98603.75;;;19.43;83.69
14120;BME280;7138;49.246;9.100;2023-07-31T03:03:53;98603.72;;;19.45;83.87
14120;BME280;7138;49.246;9.100;2023-07-31T03:06:21;98598.50;;;19.43;83.53
14120;BME280;7138;49.246;9.100;2023-07-31T03:08:47;98599.38;;;19.44;83.71
14120;BME280;7138;49.246;9.100;2023-07-31T03:11:12;98600.25;;;19.43;83.94
14120;BME280;7138;49.246;9.100;2023-07-31T03:13:38;98602.22;;;19.36;83.75
14120;BME280;7138;49.246;9.100;2023-07-31T03:16:04;98597.09;;;19.33;83.91
14120;BME280;7138;49.246;9.100;2023-07-31T03:18:30;98587.66;;;19.29;84.27
14120;BME280;7138;49.246;9.100;2023-07-31T03:20:56;98595.56;;;19.28;84.24
14120;BME280;7138;49.246;9.100;2023-07-31T03:23:23;98593.91;;;19.25;84.67
14120;BME280;7138;49.246;9.100;2023-07-31T03:25:57;98587.88;;;19.23;84.36
14120;BME280;7138;49.246;9.100;2023-07-31T03:28:23;98588.03;;;19.19;85.29
14120;BME280;7138;49.246;9.100;2023-07-31T03:30:49;98590.72;;;19.17;85.41
14120;BME280;7138;49.246;9.100;2023-07-31T03:33:15;98597.66;;;19.18;84.83
14120;BME280;7138;49.246;9.100;2023-07-31T03:35:40;98593.34;;;19.17;85.00
14120;BME280;7138;49.246;9.100;2023-07-31T03:38:06;98592.41;;;19.18;84.79
14120;BME280;7138;49.246;9.100;2023-07-31T03:40:33;98580.25;;;19.17;85.11
14120;BME280;7138;49.246;9.100;2023-07-31T03:42:59;98587.19;;;19.18;85.53
14120;BME280;7138;49.246;9.100;2023-07-31T03:45:25;98585.50;;;19.17;85.30
14120;BME280;7138;49.246;9.100;2023-07-31T03:47:51;98589.00;;;19.16;85.79
14120;BME280;7138;49.246;9.100;2023-07-31T03:50:17;98575.28;;;19.09;85.63
14120;BME280;7138;49.246;9.100;2023-07-31T03:52:43;98589.09;;;19.15;85.74
14120;BME280;7138;49.246;9.100;2023-07-31T03:55:09;98586.47;;;19.15;85.47
14120;BME280;7138;49.246;9.100;2023-07-31T03:57:36;98576.91;;;19.12;85.59
14120;BME280;7138;49.246;9.100;2023-07-31T04:00:02;98585.72;;;19.11;85.67
14120;BME280;7138;49.246;9.100;2023-07-31T04:02:28;98593.69;;;19.08;85.73
14120;BME280;7138;49.246;9.100;2023-07-31T04:04:54;98594.59;;;19.07;85.48
14120;BME280;7138;49.246;9.100;2023-07-31T04:07:19;98597.28;;;19.05;85.57
14120;BME280;7138;49.246;9.100;2023-07-31T04:09:45;98597.41;;;19.02;85.56
14120;BME280;7138;49.246;9.100;2023-07-31T04:12:11;98590.38;;;19.03;85.80
14120;BME280;7138;49.246;9.100;2023-07-31T04:14:38;98589.56;;;19.01;85.54
14120;BME280;7138;49.246;9.100;2023-07-31T04:17:04;98589.56;;;19.01;85.58
14120;BME280;7138;49.246;9.100;2023-07-31T04:19:30;98587.84;;;19.00;85.50
14120;BME280;7138;49.246;9.100;2023-07-31T04:21:56;98594.94;;;18.98;85.62
14120;BME280;7138;49.246;9.100;2023-07-31T04:24:22;98594.06;;;18.97;85.79
14120;BME280;7138;49.246;9.100;2023-07-31T04:26:50;98590.66;;;18.95;85.90
14120;BME280;7138;49.246;9.100;2023-07-31T04:29:16;98588.03;;;18.95;86.20
14120;BME280;7138;49.246;9.100;2023-07-31T04:31:43;98586.28;;;18.96;86.23
14120;BME280;7138;49.246;9.100;2023-07-31T04:34:09;98593.22;;;18.97;86.48
14120;BME280;7138;49.246;9.100;2023-07-31T04:36:35;98579.31;;;18.95;86.56
14120;BME280;7138;49.246;9.100;2023-07-31T04:39:01;98587.94;;;18.98;86.27
14120;BME280;7138;49.246;9.100;2023-07-31T04:41:27;98575.69;;;18.99;86.33
14120;BME280;7138;49.246;9.100;2023-07-31T04:43:53;98583.44;;;19.02;86.28
14120;BME280;7138;49.246;9.100;2023-07-31T04:46:19;98571.13;;;19.04;86.61
14120;BME280;7138;49.246;9.100;2023-07-31T04:48:46;98573.63;;;19.07;86.41
14120;BME280;7138;49.246;9.100;2023-07-31T04:51:12;98575.34;;;19.08;86.67
14120;BME280;7138;49.246;9.100;2023-07-31T04:53:38;98568.28;;;19.10;86.33
14120;BME280;7138;49.246;9.100;2023-07-31T04:56:04;98572.53;;;19.13;86.13
14120;BME280;7138;49.246;9.100;2023-07-31T04:58:30;98577.84;;;19.11;86.09
14120;BME280;7138;49.246;9.100;2023-07-31T05:00:56;98569.28;;;19.06;85.91
14120;BME280;7138;49.246;9.100;2023-07-31T05:03:22;98574.59;;;19.04;85.69
14120;BME280;7138;49.246;9.100;2023-07-31T05:05:50;98567.53;;;19.06;85.98
14120;BME280;7138;49.246;9.100;2023-07-31T05:08:16;98562.25;;;19.08;85.75
14120;BME280;7138;49.246;9.100;2023-07-31T05:10:43;98568.50;;;19.04;84.74
14120;BME280;7138;49.246;9.100;2023-07-31T05:13:09;98570.25;;;19.03;85.25
14120;BME280;7138;49.246;9.100;2023-07-31T05:15:34;98565.88;;;19.04;86.02
14120;BME280;7138;49.246;9.100;2023-07-31T05:18:00;98559.88;;;19.00;85.65
14120;BME280;7138;49.246;9.100;2023-07-31T05:20:27;98553.75;;;19.01;85.52
14120;BME280;7138;49.246;9.100;2023-07-31T05:22:54;98560.81;;;18.99;85.28
14120;BME280;7138;49.246;9.100;2023-07-31T05:25:20;98554.59;;;19.02;85.28
14120;BME280;7138;49.246;9.100;2023-07-31T05:27:46;98556.25;;;19.04;85.09
14120;BME280;7138;49.246;9.100;2023-07-31T05:30:12;98560.53;;;19.07;85.23
14120;BME280;7138;49.246;9.100;2023-07-31T05:32:38;98560.41;;;19.10;85.00
14120;BME280;7138;49.246;9.100;2023-07-31T05:35:05;98555.84;;;19.15;85.26
14120;BME280;7138;49.246;9.100;2023-07-31T05:37:31;98556.47;;;19.22;84.56
14120;BME280;7138;49.246;9.100;2023-07-31T05:39:58;98552.63;;;19.30;84.68
14120;BME280;7138;49.246;9.100;2023-07-31T05:42:24;98559.59;;;19.31;84.10
14120;BME280;7138;49.246;9.100;2023-07-31T05:44:50;98550.56;;;19.40;84.16
14120;BME280;7138;49.246;9.100;2023-07-31T05:47:16;98555.41;;;19.50;83.87
14120;BME280;7138;49.246;9.100;2023-07-31T05:49:42;98551.81;;;19.53;83.57
14120;BME280;7138;49.246;9.100;2023-07-31T05:52:07;98559.44;;;19.59;83.47
14120;BME280;7138;49.246;9.100;2023-07-31T05:54:33;98560.06;;;19.66;83.10
14120;BME280;7138;49.246;9.100;2023-07-31T05:57:00;98554.56;;;19.72;83.01
14120;BME280;7138;49.246;9.100;2023-07-31T05:59:26;98551.75;;;19.76;83.33
14120;BME280;7138;49.246;9.100;2023-07-31T06:01:53;98554.97;;;19.83;81.74
14120;BME280;7138;49.246;9.100;2023-07-31T06:04:18;98562.56;;;19.90;82.39
14120;BME280;7138;49.246;9.100;2023-07-31T06:06:44;98555.88;;;20.03;82.34
14120;BME280;7138;49.246;9.100;2023-07-31T06:09:10;98551.78;;;20.18;81.44
14120;BME280;7138;49.246;9.100;2023-07-31T06:11:37;98557.72;;;20.43;80.76
14120;BME280;7138;49.246;9.100;2023-07-31T06:14:04;98562.06;;;20.85;79.10
14120;BME280;7138;49.246;9.100;2023-07-31T06:16:30;98559.94;;;21.50;78.03
14120;BME280;7138;49.246;9.100;2023-07-31T06:18:56;98559.50;;;22.14;75.71
14120;BME280;7138;49.246;9.100;2023-07-31T06:21:22;98553.78;;;22.74;74.94
14120;BME280;7138;49.246;9.100;2023-07-31T06:23:49;98553.81;;;23.40;72.58
14120;BME280;7138;49.246;9.100;2023-07-31T06:26:14;98551.47;;;23.97;70.78
14120;BME280;7138;49.246;9.100;2023-07-31T06:28:40;98552.03;;;24.33;68.77
14120;BME280;7138;49.246;9.100;2023-07-31T06:31:07;98549.22;;;24.50;67.77
14120;BME280;7138;49.246;9.100;2023-07-31T06:33:33;98548.09;;;24.54;68.13
14120;BME280;7138;49.246;9.100;2023-07-31T06:35:59;98549.31;;;24.34;67.06
14120;BME280;7138;49.246;9.100;2023-07-31T06:38:26;98548.50;;;24.18;68.07
14120;BME280;7138;49.246;9.100;2023-07-31T06:40:52;98547.97;;;23.96;68.23
14120;BME280;7138;49.246;9.100;2023-07-31T06:43:18;98544.34;;;23.67;68.54
14120;BME280;7138;49.246;9.100;2023-07-31T06:45:44;98544.94;;;23.41;69.38
14120;BME280;7138;49.246;9.100;2023-07-31T06:48:12;98545.81;;;23.09;69.04
14120;BME280;7138;49.246;9.100;2023-07-31T06:50:38;98535.75;;;22.67;69.82
14120;BME280;7138;49.246;9.100;2023-07-31T06:53:04;98548.50;;;22.57;71.51
14120;BME280;7138;49.246;9.100;2023-07-31T06:55:30;98553.69;;;22.42;71.51
14120;BME280;7138;49.246;9.100;2023-07-31T06:57:56;98539.97;;;22.35;72.11
14120;BME280;7138;49.246;9.100;2023-07-31T07:00:23;98555.69;;;22.19;72.77
14120;BME280;7138;49.246;9.100;2023-07-31T07:02:49;98544.00;;;22.08;72.63
14120;BME280;7138;49.246;9.100;2023-07-31T07:05:18;98542.13;;;21.93;72.25
14120;BME280;7138;49.246;9.100;2023-07-31T07:07:44;98540.53;;;21.89;73.88
14120;BME280;7138;49.246;9.100;2023-07-31T07:10:10;98541.97;;;21.77;73.66
14120;BME280;7138;49.246;9.100;2023-07-31T07:12:55;98534.22;;;21.74;73.02
14120;BME280;7138;49.246;9.100;2023-07-31T07:15:21;98540.88;;;21.64;73.90
14120;BME280;7138;49.246;9.100;2023-07-31T07:17:47;98547.25;;;21.58;73.73
14120;BME280;7138;49.246;9.100;2023-07-31T07:20:13;98551.69;;;21.58;74.67
14120;BME280;7138;49.246;9.100;2023-07-31T07:22:40;98551.91;;;21.53;74.04
14120;BME280;7138;49.246;9.100;2023-07-31T07:25:09;98550.19;;;21.52;75.18
14120;BME280;7138;49.246;9.100;2023-07-31T07:27:35;98536.88;;;21.55;75.84
14120;BME280;7138;49.246;9.100;2023-07-31T07:30:01;98534.34;;;21.54;74.33
14120;BME280;7138;49.246;9.100;2023-07-31T07:32:27;98537.31;;;21.46;75.17
14120;BME280;7138;49.246;9.100;2023-07-31T07:34:53;98542.28;;;21.52;74.73
14120;BME280;7138;49.246;9.100;2023-07-31T07:37:18;98546.28;;;21.61;75.30
14120;BME280;7138;49.246;9.100;2023-07-31T07:39:46;98539.44;;;21.75;75.05
14120;BME280;7138;49.246;9.100;2023-07-31T07:42:11;98542.88;;;21.95;74.51
14120;BME280;7138;49.246;9.100;2023-07-31T07:44:37;98552.03;;;22.05;73.06
14120;BME280;7138;49.246;9.100;2023-07-31T07:47:03;98538.91;;;22.22;73.78
14120;BME280;7138;49.246;9.100;2023-07-31T07:49:31;98532.72;;;22.40;74.14
14120;BME280;7138;49.246;9.100;2023-07-31T07:51:57;98532.69;;;22.57;74.16
14120;BME280;7138;49.246;9.100;2023-07-31T07:54:23;98528.38;;;22.73;73.47
14120;BME280;7138;49.246;9.100;2023-07-31T07:56:50;98528.66;;;22.84;74.39
14120;BME280;7138;49.246;9.100;2023-07-31T07:59:16;98521.31;;;22.90;72.70
14120;BME280;7138;49.246;9.100;2023-07-31T08:01:42;98519.97;;;22.98;73.26
14120;BME280;7138;49.246;9.100;2023-07-31T08:04:07;98520.50;;;23.05;71.56
14120;BME280;7138;49.246;9.100;2023-07-31T08:06:33;98511.00;;;23.18;71.45
14120;BME280;7138;49.246;9.100;2023-07-31T08:08:59;98516.19;;;23.35;71.54
14120;BME280;7138;49.246;9.100;2023-07-31T08:11:25;98518.81;;;23.52;71.72
14120;BME280;7138;49.246;9.100;2023-07-31T08:13:52;98515.88;;;23.72;71.84
14120;BME280;7138;49.246;9.100;2023-07-31T08:16:18;98514.63;;;23.79;70.88
14120;BME280;7138;49.246;9.100;2023-07-31T08:18:44;98512.03;;;23.93;70.84
14120;BME280;7138;49.246;9.100;2023-07-31T08:21:10;98507.91;;;24.04;70.98
14120;BME280;7138;49.246;9.100;2023-07-31T08:23:36;98505.44;;;24.16;70.40
14120;BME280;7138;49.246;9.100;2023-07-31T08:26:02;98513.31;;;24.32;70.97
14120;BME280;7138;49.246;9.100;2023-07-31T08:28:27;98515.00;;;24.33;69.22
14120;BME280;7138;49.246;9.100;2023-07-31T08:30:55;98506.34;;;24.31;69.43
14120;BME280;7138;49.246;9.100;2023-07-31T08:33:20;98498.97;;;24.36;69.67
14120;BME280;7138;49.246;9.100;2023-07-31T08:35:46;98506.16;;;24.34;70.16
14120;BME280;7138;49.246;9.100;2023-07-31T08:38:12;98501.44;;;24.39;70.47
14120;BME280;7138;49.246;9.100;2023-07-31T08:40:38;98496.16;;;24.39;68.93
14120;BME280;7138;49.246;9.100;2023-07-31T08:43:04;98500.38;;;24.27;68.27
14120;BME280;7138;49.246;9.100;2023-07-31T08:45:32;98508.38;;;24.26;68.59
14120;BME280;7138;49.246;9.100;2023-07-31T08:47:59;98501.94;;;24.16;68.24
14120;BME280;7138;49.246;9.100;2023-07-31T08:50:25;98502.28;;;24.10;68.37
14120;BME280;7138;49.246;9.100;2023-07-31T08:52:52;98488.44;;;23.90;68.02
14120;BME280;7138;49.246;9.100;2023-07-31T08:55:19;98498.25;;;23.88;68.36
14120;BME280;7138;49.246;9.100;2023-07-31T08:57:51;98488.03;;;23.82;68.73
14120;BME280;7138;49.246;9.100;2023-07-31T09:00:20;98476.28;;;23.72;68.71
14120;BME280;7138;49.246;9.100;2023-07-31T09:02:57;98491.41;;;23.84;69.87
14120;BME280;7138;49.246;9.100;2023-07-31T09:05:26;98494.25;;;23.81;69.68
14120;BME280;7138;49.246;9.100;2023-07-31T09:07:55;98485.66;;;23.62;68.93
14120;BME280;7138;49.246;9.100;2023-07-31T09:10:21;98476.13;;;23.60;70.02
14120;BME280;7138;49.246;9.100;2023-07-31T09:12:49;98489.59;;;23.71;69.95
14120;BME280;7138;49.246;9.100;2023-07-31T09:15:17;98480.03;;;23.68;68.96
14120;BME280;7138;49.246;9.100;2023-07-31T09:17:43;98474.75;;;23.68;68.96
14120;BME280;7138;49.246;9.100;2023-07-31T09:20:14;98475.59;;;23.69;69.27
14120;BME280;7138;49.246;9.100;2023-07-31T09:22:43;98478.91;;;23.72;70.40
14120;BME280;7138;49.246;9.100;2023-07-31T09:25:17;98467.56;;;23.86;70.64
14120;BME280;7138;49.246;9.100;2023-07-31T09:27:47;98467.50;;;24.02;70.15
14120;BME280;7138;49.246;9.100;2023-07-31T09:30:13;98459.47;;;24.19;69.60
14120;BME280;7138;49.246;9.100;2023-07-31T09:32:39;98462.50;;;24.27;69.43
14120;BME280;7138;49.246;9.100;2023-07-31T09:35:18;98454.13;;;24.34;68.63
14120;BME280;7138;49.246;9.100;2023-07-31T09:37:49;98457.41;;;24.38;70.33
14120;BME280;7138;49.246;9.100;2023-07-31T09:40:26;98449.50;;;24.38;67.81
14120;BME280;7138;49.246;9.100;2023-07-31T09:42:53;98455.75;;;24.37;68.79
14120;BME280;7138;49.246;9.100;2023-07-31T09:45:19;98443.84;;;24.44;68.70
14120;BME280;7138;49.246;9.100;2023-07-31T09:47:46;98433.47;;;24.55;69.02
14120;BME280;7138;49.246;9.100;2023-07-31T09:50:14;98450.84;;;24.73;69.82
14120;BME280;7138;49.246;9.100;2023-07-31T09:52:41;98449.19;;;24.86;69.79
14120;BME280;7138;49.246;9.100;2023-07-31T09:55:10;98445.19;;;24.93;69.03
14120;BME280;7138;49.246;9.100;2023-07-31T09:57:39;98447.91;;;25.06;66.91
14120;BME280;7138;49.246;9.100;2023-07-31T10:00:07;98445.00;;;25.11;67.55
14120;BME280;7138;49.246;9.100;2023-07-31T10:02:36;98438.00;;;25.10;65.94
14120;BME280;7138;49.246;9.100;2023-07-31T10:05:04;98448.03;;;25.05;65.64
14120;BME280;7138;49.246;9.100;2023-07-31T10:07:31;98440.28;;;25.02;67.00
14120;BME280;7138;49.246;9.100;2023-07-31T10:10:00;98433.75;;;25.07;66.69
14120;BME280;7138;49.246;9.100;2023-07-31T10:12:28;98431.97;;;25.08;66.37
14120;BME280;7138;49.246;9.100;2023-07-31T10:14:55;98432.22;;;25.03;65.94
14120;BME280;7138;49.246;9.100;2023-07-31T10:17:22;98432.16;;;25.05;66.13
14120;BME280;7138;49.246;9.100;2023-07-31T10:19:49;98422.78;;;24.99;66.34
14120;BME280;7138;49.246;9.100;2023-07-31T10:22:15;98412.66;;;25.06;66.32
14120;BME280;7138;49.246;9.100;2023-07-31T10:24:43;98410.47;;;25.12;66.37
14120;BME280;7138;49.246;9.100;2023-07-31T10:27:10;98403.53;;;25.24;66.88
14120;BME280;7138;49.246;9.100;2023-07-31T10:29:37;98410.81;;;25.34;67.27
14120;BME280;7138;49.246;9.100;2023-07-31T10:32:06;98402.44;;;25.40;66.31
14120;BME280;7138;49.246;9.100;2023-07-31T10:34:35;98406.47;;;25.60;67.32
14120;BME280;7138;49.246;9.100;2023-07-31T10:37:20;98406.81;;;25.68;64.57
14120;BME280;7138;49.246;9.100;2023-07-31T10:39:59;98417.16;;;25.59;64.54
14120;BME280;7138;49.246;9.100;2023-07-31T10:42:34;98407.03;;;25.65;65.09
14120;BME280;7138;49.246;9.100;2023-07-31T10:45:04;98402.47;;;25.67;65.35
14120;BME280;7138;49.246;9.100;2023-07-31T10:47:31;98402.16;;;25.84;64.79
14120;BME280;7138;49.246;9.100;2023-07-31T10:50:28;98407.47;;;25.84;64.57
14120;BME280;7138;49.246;9.100;2023-07-31T10:52:57;98407.03;;;25.65;63.77
14120;BME280;7138;49.246;9.100;2023-07-31T10:55:31;98403.94;;;25.44;64.42
14120;BME280;7138;49.246;9.100;2023-07-31T10:58:05;98410.94;;;25.45;64.84
14120;BME280;7138;49.246;9.100;2023-07-31T11:00:33;98416.13;;;25.20;64.80
14120;BME280;7138;49.246;9.100;2023-07-31T11:03:03;98409.34;;;25.02;64.90
14120;BME280;7138;49.246;9.100;2023-07-31T11:05:44;98391.59;;;24.90;66.33
14120;BME280;7138;49.246;9.100;2023-07-31T11:08:18;98400.00;;;24.96;66.35
14120;BME280;7138;49.246;9.100;2023-07-31T11:10:47;98395.19;;;25.03;66.38
14120;BME280;7138;49.246;9.100;2023-07-31T11:13:13;98389.63;;;25.08;67.49
14120;BME280;7138;49.246;9.100;2023-07-31T11:15:41;98392.34;;;25.06;66.77
14120;BME280;7138;49.246;9.100;2023-07-31T11:18:07;98395.69;;;24.95;65.51
14120;BME280;7138;49.246;9.100;2023-07-31T11:20:35;98387.56;;;24.98;67.42
14120;BME280;7138;49.246;9.100;2023-07-31T11:23:03;98391.88;;;24.99;67.79
14120;BME280;7138;49.246;9.100;2023-07-31T11:25:30;98386.69;;;24.98;65.33
14120;BME280;7138;49.246;9.100;2023-07-31T11:27:57;98385.84;;;24.97;66.01
14120;BME280;7138;49.246;9.100;2023-07-31T11:30:23;98381.59;;;24.95;67.40
14120;BME280;7138;49.246;9.100;2023-07-31T11:32:50;98378.88;;;24.82;66.63
14120;BME280;7138;49.246;9.100;2023-07-31T11:35:18;98382.47;;;24.67;66.10
14120;BME280;7138;49.246;9.100;2023-07-31T11:37:44;98386.81;;;24.54;66.71
14120;BME280;7138;49.246;9.100;2023-07-31T11:40:11;98374.81;;;24.48;67.72
14120;BME280;7138;49.246;9.100;2023-07-31T11:42:38;98365.84;;;24.51;67.69
14120;BME280;7138;49.246;9.100;2023-07-31T11:45:04;98374.53;;;24.53;68.70
14120;BME280;7138;49.246;9.100;2023-07-31T11:47:33;98384.16;;;24.54;68.47
14120;BME280;7138;49.246;9.100;2023-07-31T11:50:02;98388.41;;;24.42;67.47
14120;BME280;7138;49.246;9.100;2023-07-31T11:52:34;98372.06;;;24.50;67.42
14120;BME280;7138;49.246;9.100;2023-07-31T11:55:04;98356.97;;;24.52;67.29
14120;BME280;7138;49.246;9.100;2023-07-31T11:57:32;98351.28;;;24.72;68.93
14120;BME280;7138;49.246;9.100;2023-07-31T11:59:58;98343.44;;;24.85;67.10
14120;BME280;7138;49.246;9.100;2023-07-31T12:02:24;98344.44;;;24.96;67.70
14120;BME280;7138;49.246;9.100;2023-07-31T12:04:50;98339.34;;;25.08;67.06
14120;BME280;7138;49.246;9.100;2023-07-31T12:07:18;98340.16;;;25.08;65.96
14120;BME280;7138;49.246;9.100;2023-07-31T12:09:53;98355.84;;;25.11;65.92
14120;BME280;7138;49.246;9.100;2023-07-31T12:12:20;98359.19;;;25.00;66.22
14120;BME280;7138;49.246;9.100;2023-07-31T12:14:47;98350.59;;;24.97;67.13
14120;BME280;7138;49.246;9.100;2023-07-31T12:17:14;98351.28;;;24.86;66.42
14120;BME280;7138;49.246;9.100;2023-07-31T12:19:40;98363.38;;;24.76;67.24
14120;BME280;7138;49.246;9.100;2023-07-31T12:22:11;98355.06;;;24.68;67.10
14120;BME280;7138;49.246;9.100;2023-07-31T12:24:39;98344.97;;;24.61;66.73
14120;BME280;7138;49.246;9.100;2023-07-31T12:27:10;98335.16;;;24.48;67.18
14120;BME280;7138;49.246;9.100;2023-07-31T12:29:38;98329.22;;;24.45;67.49
14120;BME280;7138;49.246;9.100;2023-07-31T12:32:04;98327.31;;;24.47;68.60
14120;BME280;7138;49.246;9.100;2023-07-31T12:34:42;98321.28;;;24.45;68.88
14120;BME280;7138;49.246;9.100;2023-07-31T12:37:08;98314.75;;;24.51;69.54
14120;BME280;7138;49.246;9.100;2023-07-31T12:39:33;98318.44;;;24.48;68.07
14120;BME280;7138;49.246;9.100;2023-07-31T12:42:01;98304.28;;;24.49;69.86
14120;BME280;7138;49.246;9.100;2023-07-31T12:44:26;98315.81;;;24.34;67.42
14120;BME280;7138;49.246;9.100;2023-07-31T12:46:52;98313.00;;;24.37;67.77
14120;BME280;7138;49.246;9.100;2023-07-31T12:49:18;98308.91;;;24.45;68.90
14120;BME280;7138;49.246;9.100;2023-07-31T12:51:44;98300.13;;;24.45;68.66
14120;BME280;7138;49.246;9.100;2023-07-31T12:54:10;98296.03;;;24.54;68.60
14120;BME280;7138;49.246;9.100;2023-07-31T12:56:35;98304.66;;;24.57;67.91
14120;BME280;7138;49.246;9.100;2023-07-31T12:59:03;98296.72;;;24.57;67.73
14120;BME280;7138;49.246;9.100;2023-07-31T13:01:28;98302.97;;;24.56;68.39
14120;BME280;7138;49.246;9.100;2023-07-31T13:03:54;98298.88;;;24.51;68.47
14120;BME280;7138;49.246;9.100;2023-07-31T13:06:20;98289.09;;;24.53;67.86
14120;BME280;7138;49.246;9.100;2023-07-31T13:08:46;98283.22;;;24.47;67.49
14120;BME280;7138;49.246;9.100;2023-07-31T13:11:12;98280.38;;;24.51;67.67